Time;durP1;ratioP1;P1;durP2;ratioP2;P2;SDS_P1;SDS_P2;PMS_P1;PMS_P2;Temp;Humidity;BMP_temperature;BMP_pressure;BME280_temperature;BME280_humidity;BME280_pressure;Samples;Min_cycle;Max_cycle;Signal;HPM_P1;HPM_P2
2024/01/22 00:13:32;;;;;;;17.88;13.63;;;;;;;19.99;47.57;102198.28;41336217;28;20058;-71
2024/01/22 00:33:33;;;;;;;17.05;12.52;;;;;;;19.97;47.79;102207.16;41353806;28;20496;-71
2024/01/22 00:53:33;;;;;;;18.92;13.23;;;;;;;19.95;47.34;102172.16;41338285;28;20151;-71
2024/01/22 01:13:37;;;;;;;16.08;12.73;;;;;;;19.94;47.19;102159.94;41388811;28;20045;-72
2024/01/22 01:33:37;;;;;;;16.90;13.30;;;;;;;19.95;47.21;102136.19;41380947;28;20046;-70
2024/01/22 01:53:38;;;;;;;15.73;13.05;;;;;;;19.96;46.71;102132.66;41378038;28;20528;-69
2024/01/22 02:13:38;;;;;;;19.13;13.13;;;;;;;19.98;46.79;102136.06;41371787;28;20042;-70
2024/01/22 02:33:39;;;;;;;16.33;12.48;;;;;;;19.99;46.71;102122.00;41366608;28;20076;-70
2024/01/22 02:53:39;;;;;;;15.15;11.52;;;;;;;20.05;46.38;102102.47;41359822;28;20054;-70
2024/01/22 03:13:42;;;;;;;15.85;11.82;;;;;;;20.11;45.70;102075.03;41356870;28;20054;-71
2024/01/22 03:33:42;;;;;;;14.10;11.40;;;;;;;20.07;45.80;102066.44;41336224;28;20042;-71
2024/01/22 03:53:43;;;;;;;14.63;11.68;;;;;;;20.02;45.77;102071.06;41365361;28;20037;-69
2024/01/22 04:13:43;;;;;;;15.07;11.50;;;;;;;20.03;45.43;102069.28;41354043;28;20494;-70
2024/01/22 04:33:44;;;;;;;15.32;11.70;;;;;;;20.04;45.31;102045.53;41369974;28;20133;-71
2024/01/22 04:53:44;;;;;;;15.75;11.80;;;;;;;20.04;45.46;102060.47;41362965;28;20089;-72
2024/01/22 05:13:54;;;;;;;13.32;10.77;;;;;;;20.27;44.69;102064.66;41359487;28;20058;-65
2024/01/22 05:33:54;;;;;;;21.88;12.77;;;;;;;20.81;45.75;102034.94;41367877;28;20600;-70
2024/01/22 05:53:55;;;;;;;27.45;17.85;;;;;;;19.85;43.47;102027.13;41355514;28;20052;-68
2024/01/22 06:13:56;;;;;;;40.22;18.70;;;;;;;20.53;41.04;102021.31;41364019;28;20053;-70
2024/01/22 06:33:56;;;;;;;37.53;17.88;;;;;;;20.89;40.24;102022.25;41379566;28;20112;-74
2024/01/22 06:53:57;;;;;;;29.85;15.88;;;;;;;21.06;40.96;102051.19;41421367;28;20502;-74
2024/01/22 07:13:58;;;;;;;25.23;15.38;;;;;;;21.27;40.50;102066.84;41416342;28;20112;-70
2024/01/22 07:33:58;;;;;;;24.05;14.45;;;;;;;21.36;40.58;102062.88;41420922;28;20556;-68
2024/01/22 07:53:58;;;;;;;20.83;13.80;;;;;;;21.46;40.33;102082.56;41403967;28;20042;-68
2024/01/22 08:13:59;;;;;;;25.10;14.60;;;;;;;21.51;39.28;102062.09;41412858;28;20046;-70
2024/01/22 08:34:01;;;;;;;19.67;13.93;;;;;;;21.47;40.24;102050.03;41409531;28;20061;-68
2024/01/22 08:54:02;;;;;;;18.88;13.50;;;;;;;21.43;40.01;102059.88;41425118;28;20046;-67
2024/01/22 09:14:06;;;;;;;18.10;13.10;;;;;;;21.35;40.32;102030.41;41419717;28;20053;-69
2024/01/22 09:34:07;;;;;;;16.60;12.57;;;;;;;21.53;40.56;102002.25;41438518;28;20046;-68
2024/01/22 09:54:11;;;;;;;16.45;12.52;;;;;;;21.64;40.80;101958.66;41418790;28;20069;-68
2024/01/22 10:14:12;;;;;;;16.73;12.18;;;;;;;21.93;40.27;101925.41;41436717;28;20054;-68
2024/01/22 10:34:13;;;;;;;16.73;11.43;;;;;;;22.06;40.29;101904.47;41402206;28;23376;-69
2024/01/22 10:54:13;;;;;;;16.08;11.75;;;;;;;22.18;39.87;101842.22;41412503;28;20109;-73
2024/01/22 11:14:15;;;;;;;16.52;10.95;;;;;;;22.25;40.13;101821.63;41412916;28;20090;-72
2024/01/22 11:34:40;;;;;;;13.07;10.68;;;;;;;22.29;40.77;101762.44;41256719;28;20051;-69
2024/01/22 11:54:57;;;;;;;13.48;9.52;;;;;;;22.29;40.73;101729.00;41410322;28;20054;-69
2024/01/22 12:14:58;;;;;;;13.35;10.25;;;;;;;22.25;41.50;101708.16;41407670;28;20177;-69
2024/01/22 12:35:02;;;;;;;13.57;9.98;;;;;;;22.18;41.04;101702.38;41410751;28;20405;-71
2024/01/22 12:55:02;;;;;;;12.18;9.82;;;;;;;21.93;41.04;101708.31;41443319;28;20073;-73
2024/01/22 13:15:04;;;;;;;13.55;9.40;;;;;;;21.73;41.60;101689.25;41393749;28;20046;-72
2024/01/22 13:35:05;;;;;;;12.13;9.93;;;;;;;21.74;41.31;101690.97;41375086;28;20049;-70
2024/01/22 13:55:06;;;;;;;13.27;10.40;;;;;;;21.73;40.81;101662.91;41401277;28;20057;-71
2024/01/22 14:15:09;;;;;;;12.88;9.85;;;;;;;21.57;41.66;101631.34;41358562;28;20056;-71
2024/01/22 14:35:10;;;;;;;13.90;10.20;;;;;;;21.49;42.41;101615.09;41438586;28;20070;-71
2024/01/22 14:55:10;;;;;;;14.32;9.80;;;;;;;21.39;42.33;101596.34;41429413;28;20469;-67
2024/01/22 15:15:10;;;;;;;13.95;10.32;;;;;;;21.21;42.36;101558.75;41405850;28;20488;-68
2024/01/22 15:35:12;;;;;;;15.50;11.10;;;;;;;21.05;41.67;101519.31;41429577;28;20038;-72
2024/01/22 15:55:14;;;;;;;17.27;11.25;;;;;;;21.06;42.73;101494.66;41391956;28;20042;-81
2024/01/22 16:15:15;;;;;;;17.98;10.85;;;;;;;21.01;44.18;101496.75;41352128;28;20050;-73
2024/01/22 16:35:16;;;;;;;27.48;19.10;;;;;;;20.18;37.75;101457.56;41404323;28;20042;-70
2024/01/22 16:55:16;;;;;;;26.08;14.82;;;;;;;20.88;43.90;101454.47;41429415;28;20489;-72
2024/01/22 17:15:17;;;;;;;28.23;17.52;;;;;;;20.97;46.95;101422.34;41320544;28;20061;-70
2024/01/22 17:35:17;;;;;;;49.72;29.02;;;;;;;19.68;35.44;101407.69;41297644;28;20042;-75
2024/01/22 17:55:18;;;;;;;49.40;27.10;;;;;;;20.52;41.98;101401.25;41401323;28;20044;-73
2024/01/22 18:15:20;;;;;;;62.67;32.28;;;;;;;20.60;45.62;101374.47;41305983;28;20029;-75
2024/01/22 18:35:21;;;;;;;61.70;28.33;;;;;;;20.79;46.56;101305.84;41358134;28;20046;-80
2024/01/22 18:55:22;;;;;;;44.90;24.80;;;;;;;20.69;47.98;101305.50;41393737;28;20046;-76
2024/01/22 19:15:31;;;;;;;44.72;23.20;;;;;;;20.61;47.49;101255.97;41420647;28;20056;-80
2024/01/22 19:35:32;;;;;;;38.70;21.63;;;;;;;20.54;47.86;101212.53;41420678;28;20527;-79
2024/01/22 19:55:33;;;;;;;40.45;20.75;;;;;;;20.52;48.58;101182.88;41384839;28;20042;-76
2024/01/22 20:15:34;;;;;;;35.33;19.98;;;;;;;20.57;46.66;101190.50;41262058;28;20046;-75
2024/01/22 20:35:36;;;;;;;40.17;18.70;;;;;;;20.51;46.96;101201.38;41369890;28;20137;-76
2024/01/22 20:55:39;;;;;;;31.95;19.35;;;;;;;20.35;45.31;101201.47;41387993;28;20494;-70
2024/01/22 21:15:39;;;;;;;31.33;17.63;;;;;;;20.40;45.19;101213.41;41369059;28;20042;-70
2024/01/22 21:35:40;;;;;;;27.15;16.92;;;;;;;20.42;45.42;101208.91;41374495;28;20061;-71
2024/01/22 21:55:40;;;;;;;24.35;16.40;;;;;;;20.40;45.05;101192.38;41337663;28;20157;-71
2024/01/22 22:15:42;;;;;;;24.35;15.82;;;;;;;20.37;45.01;101176.75;41363941;28;20093;-69
2024/01/22 22:35:42;;;;;;;22.55;15.52;;;;;;;20.37;45.02;101162.75;41360869;28;20046;-70
2024/01/22 22:55:43;;;;;;;22.63;15.05;;;;;;;20.31;44.78;101138.53;41373346;28;20046;-69
2024/01/22 23:15:43;;;;;;;21.42;14.93;;;;;;;20.29;44.67;101124.63;41366050;28;20531;-69
2024/01/22 23:35:43;;;;;;;20.73;14.85;;;;;;;20.30;44.27;101093.94;41370854;28;20429;-69
2024/01/22 23:55:44;;;;;;;21.77;14.18;;;;;;;20.23;44.50;101090.81;41356984;28;20050;-70
